createdAt,value
2023-03-22T00:01:44.296Z,99.90
2023-03-22T00:04:12.426Z,99.90
2023-03-22T00:06:40.439Z,99.90
2023-03-22T00:09:08.293Z,99.90
2023-03-22T00:11:36.298Z,99.90
2023-03-22T00:14:04.144Z,99.90
2023-03-22T00:16:32.064Z,99.90
2023-03-22T00:18:59.902Z,99.90
2023-03-22T00:21:27.821Z,99.90
2023-03-22T00:23:55.722Z,99.90
2023-03-22T00:26:23.639Z,99.90
2023-03-22T00:28:51.710Z,99.90
2023-03-22T00:31:21.035Z,99.90
2023-03-22T00:33:48.951Z,99.90
2023-03-22T00:36:16.732Z,99.90
2023-03-22T00:38:45.310Z,99.90
2023-03-22T00:41:14.546Z,99.90
2023-03-22T00:43:42.795Z,99.90
2023-03-22T00:46:11.422Z,99.90
2023-03-22T00:48:39.523Z,99.90
2023-03-22T00:51:07.749Z,99.90
2023-03-22T00:53:39.327Z,99.90
2023-03-22T00:56:08.696Z,99.90
2023-03-22T00:58:44.548Z,99.90
2023-03-22T01:01:15.185Z,99.90
2023-03-22T01:03:44.019Z,99.90
2023-03-22T01:06:15.480Z,99.90
2023-03-22T01:08:43.511Z,99.90
2023-03-22T01:11:11.371Z,99.90
2023-03-22T01:13:39.448Z,99.90
2023-03-22T01:16:07.881Z,99.90
2023-03-22T01:18:36.675Z,99.90
2023-03-22T01:21:04.594Z,99.90
2023-03-22T01:23:33.012Z,99.90
2023-03-22T01:26:01.258Z,99.90
2023-03-22T01:28:29.757Z,99.90
2023-03-22T01:30:58.058Z,99.90
2023-03-22T01:33:25.938Z,99.90
2023-03-22T01:35:54.063Z,99.90
2023-03-22T01:38:25.854Z,99.90
2023-03-22T01:41:00.758Z,99.90
2023-03-22T01:43:31.968Z,99.90
2023-03-22T01:46:00.386Z,99.90
2023-03-22T01:48:30.570Z,99.90
2023-03-22T01:51:04.271Z,99.90
2023-03-22T01:53:40.435Z,99.90
2023-03-22T01:56:08.855Z,99.90
2023-03-22T01:58:38.192Z,99.90
2023-03-22T02:01:09.160Z,99.90
2023-03-22T02:04:00.001Z,99.90
2023-03-22T02:06:31.011Z,99.90
2023-03-22T02:09:10.255Z,99.90
2023-03-22T02:11:42.844Z,99.90
2023-03-22T02:14:43.272Z,99.90
2023-03-22T02:18:07.476Z,99.90
2023-03-22T02:20:35.330Z,99.90
2023-03-22T02:23:23.379Z,99.90
2023-03-22T02:26:05.008Z,99.90
2023-03-22T02:28:35.675Z,99.90
2023-03-22T02:31:09.776Z,99.90
2023-03-22T02:33:57.932Z,99.90
2023-03-22T02:36:32.013Z,99.90
2023-03-22T02:39:15.078Z,99.90
2023-03-22T02:41:46.168Z,99.90
2023-03-22T02:44:26.673Z,99.90
2023-03-22T02:47:01.334Z,99.90
2023-03-22T02:49:40.770Z,99.90
2023-03-22T02:52:08.612Z,99.90
2023-03-22T02:54:44.600Z,99.90
2023-03-22T02:57:15.664Z,99.90
2023-03-22T02:59:43.843Z,99.90
2023-03-22T03:02:13.496Z,99.90
2023-03-22T03:04:45.657Z,99.90
2023-03-22T03:07:15.436Z,99.90
2023-03-22T03:09:44.026Z,99.90
2023-03-22T03:12:19.740Z,99.90
2023-03-22T03:14:47.703Z,99.90
2023-03-22T03:17:21.718Z,99.90
2023-03-22T03:19:59.427Z,99.90
2023-03-22T03:22:27.410Z,99.90
2023-03-22T03:25:00.660Z,99.90
2023-03-22T03:27:50.917Z,99.90
2023-03-22T03:30:29.420Z,99.90
2023-03-22T03:33:10.481Z,99.90
2023-03-22T03:35:44.682Z,99.90
2023-03-22T03:38:19.711Z,99.90
2023-03-22T03:40:52.946Z,99.90
2023-03-22T03:43:29.588Z,99.90
2023-03-22T03:45:58.510Z,99.90
2023-03-22T03:48:29.093Z,99.90
2023-03-22T03:50:57.888Z,99.90
2023-03-22T03:53:25.701Z,99.90
2023-03-22T03:55:53.864Z,99.90
2023-03-22T03:58:21.851Z,99.90
2023-03-22T04:00:50.640Z,99.90
2023-03-22T04:03:37.518Z,99.90
2023-03-22T04:06:41.239Z,99.90
2023-03-22T04:09:15.099Z,99.90
2023-03-22T04:11:47.138Z,99.90
2023-03-22T04:14:16.468Z,99.90
2023-03-22T04:16:48.040Z,99.90
2023-03-22T04:19:20.062Z,99.90
2023-03-22T04:21:48.108Z,99.90
2023-03-22T04:24:16.518Z,99.90
2023-03-22T04:26:47.237Z,99.90
2023-03-22T04:29:24.046Z,99.90
2023-03-22T04:31:57.560Z,99.90
2023-03-22T04:34:30.736Z,99.90
2023-03-22T04:37:03.654Z,99.90
2023-03-22T04:39:33.604Z,99.90
2023-03-22T04:42:31.282Z,99.90
2023-03-22T04:45:07.559Z,99.90
2023-03-22T04:47:36.396Z,99.90
2023-03-22T04:50:08.333Z,99.90
2023-03-22T04:52:43.803Z,99.90
2023-03-22T04:55:12.318Z,99.90
2023-03-22T04:57:40.374Z,99.90
2023-03-22T05:00:09.929Z,99.90
2023-03-22T05:02:41.817Z,99.90
2023-03-22T05:05:18.213Z,99.90
2023-03-22T05:07:47.985Z,99.90
2023-03-22T05:10:15.962Z,99.90
2023-03-22T05:12:44.258Z,99.90
2023-03-22T05:15:23.366Z,99.90
2023-03-22T05:17:52.814Z,99.90
2023-03-22T05:20:23.989Z,99.90
2023-03-22T05:23:05.588Z,99.90
2023-03-22T05:25:33.798Z,99.90
2023-03-22T05:28:04.820Z,99.90
2023-03-22T05:30:48.699Z,99.90
2023-03-22T05:33:28.926Z,99.90
2023-03-22T05:35:58.629Z,99.90
2023-03-22T05:41:10.268Z,99.90
2023-03-22T05:43:38.612Z,99.90
2023-03-22T05:46:07.939Z,99.90
2023-03-22T05:48:49.980Z,99.90
2023-03-22T05:51:19.273Z,99.90
2023-03-22T05:53:50.675Z,99.90
2023-03-22T05:56:30.584Z,99.90
2023-03-22T05:59:06.006Z,99.90
2023-03-22T06:01:34.569Z,99.90
2023-03-22T06:04:13.064Z,99.90
2023-03-22T06:06:55.033Z,99.90
2023-03-22T06:09:41.567Z,99.90
2023-03-22T06:12:13.704Z,99.90
2023-03-22T06:14:42.624Z,99.90
2023-03-22T06:17:51.223Z,99.90
2023-03-22T06:20:23.750Z,99.90
2023-03-22T06:22:58.682Z,99.90
2023-03-22T06:25:26.618Z,99.90
2023-03-22T06:27:55.966Z,99.90
2023-03-22T06:30:24.942Z,99.90
2023-03-22T06:33:09.594Z,99.90
2023-03-22T06:35:40.456Z,99.90
2023-03-22T06:38:10.801Z,99.90
2023-03-22T06:40:39.983Z,99.90
2023-03-22T06:43:08.075Z,99.90
2023-03-22T06:45:39.229Z,99.90
2023-03-22T06:48:08.270Z,99.90
2023-03-22T06:51:04.307Z,99.90
2023-03-22T06:53:35.194Z,99.90
2023-03-22T06:56:04.611Z,99.90
2023-03-22T06:58:42.114Z,99.90
2023-03-22T07:01:10.122Z,99.90
2023-03-22T07:03:38.743Z,99.90
2023-03-22T07:06:14.629Z,99.90
2023-03-22T07:08:48.175Z,99.90
2023-03-22T07:11:21.091Z,99.90
2023-03-22T07:13:56.903Z,99.90
2023-03-22T07:16:25.023Z,99.90
2023-03-22T07:18:59.428Z,99.90
2023-03-22T07:21:27.803Z,99.90
2023-03-22T07:24:00.011Z,99.90
2023-03-22T07:26:31.872Z,99.90
2023-03-22T07:29:01.344Z,99.90
2023-03-22T07:31:32.719Z,99.90
2023-03-22T07:34:03.669Z,99.90
2023-03-22T07:36:39.274Z,99.90
2023-03-22T07:39:10.595Z,99.90
2023-03-22T07:41:43.413Z,99.90
2023-03-22T07:44:26.292Z,99.90
2023-03-22T07:47:39.881Z,99.90
2023-03-22T07:50:28.358Z,99.90
2023-03-22T07:52:59.795Z,99.90
2023-03-22T07:55:27.804Z,99.90
2023-03-22T07:57:56.126Z,99.90
2023-03-22T08:00:24.218Z,99.90
2023-03-22T08:03:14.819Z,99.90
2023-03-22T08:06:04.872Z,99.90
2023-03-22T08:08:33.494Z,99.90
2023-03-22T08:11:01.476Z,99.90
2023-03-22T08:13:29.375Z,99.90
2023-03-22T08:15:57.578Z,99.90
2023-03-22T08:18:25.748Z,99.90
2023-03-22T08:20:57.651Z,99.90
2023-03-22T08:23:40.825Z,99.90
2023-03-22T08:26:28.481Z,99.90
2023-03-22T08:29:00.840Z,99.90
2023-03-22T08:31:31.727Z,99.90
2023-03-22T08:34:00.442Z,99.90
2023-03-22T08:36:31.318Z,99.90
2023-03-22T08:39:04.543Z,99.90
2023-03-22T08:41:55.756Z,99.90
2023-03-22T08:44:26.112Z,99.90
2023-03-22T08:46:54.761Z,99.90
2023-03-22T08:49:22.729Z,99.90
2023-03-22T08:52:01.671Z,99.90
2023-03-22T08:54:43.548Z,99.90
2023-03-22T08:57:34.245Z,99.90
2023-03-22T09:00:20.942Z,99.90
2023-03-22T09:03:15.241Z,99.90
2023-03-22T09:05:43.738Z,99.90
2023-03-22T09:08:19.205Z,99.90
2023-03-22T09:10:52.623Z,99.90
2023-03-22T09:13:22.871Z,99.90
2023-03-22T09:15:56.046Z,99.90
2023-03-22T09:18:27.312Z,99.90
2023-03-22T09:20:59.133Z,99.90
2023-03-22T09:23:33.374Z,99.90
2023-03-22T09:26:03.269Z,99.90
2023-03-22T09:28:32.896Z,99.90
2023-03-22T09:31:05.870Z,99.90
2023-03-22T09:33:34.506Z,99.90
2023-03-22T09:36:03.118Z,99.90
2023-03-22T09:38:36.836Z,99.90
2023-03-22T09:41:09.787Z,99.90
2023-03-22T09:43:47.797Z,99.90
2023-03-22T09:46:18.784Z,99.90
2023-03-22T09:48:49.377Z,99.90
2023-03-22T09:51:24.251Z,99.90
2023-03-22T09:53:52.162Z,99.90
2023-03-22T09:56:25.062Z,99.90
2023-03-22T09:59:01.999Z,99.90
2023-03-22T10:01:36.214Z,99.90
2023-03-22T10:04:13.551Z,99.90
2023-03-22T10:06:44.895Z,99.90
2023-03-22T10:09:48.173Z,99.90
2023-03-22T10:12:24.640Z,99.90
2023-03-22T10:14:58.766Z,99.90
2023-03-22T10:17:27.703Z,99.90
2023-03-22T10:20:02.210Z,99.90
2023-03-22T10:22:35.447Z,99.90
2023-03-22T10:25:03.512Z,99.90
2023-03-22T10:27:32.656Z,99.90
2023-03-22T10:30:30.071Z,99.90
2023-03-22T10:33:25.074Z,99.90
2023-03-22T10:35:53.694Z,99.90
2023-03-22T10:38:25.821Z,99.90
2023-03-22T10:40:55.106Z,99.90
2023-03-22T10:43:28.777Z,99.90
2023-03-22T10:45:58.427Z,99.90
2023-03-22T10:48:44.603Z,99.90
2023-03-22T10:51:17.135Z,99.90
2023-03-22T10:53:47.774Z,99.90
2023-03-22T10:56:16.890Z,99.90
2023-03-22T10:58:44.766Z,99.90
2023-03-22T11:01:14.087Z,99.90
2023-03-22T11:03:52.064Z,99.90
2023-03-22T11:06:23.878Z,99.90
2023-03-22T11:08:55.662Z,99.90
2023-03-22T11:11:35.862Z,99.90
2023-03-22T11:14:08.885Z,99.90
2023-03-22T11:16:49.234Z,99.90
2023-03-22T11:19:23.609Z,99.90
2023-03-22T11:21:52.806Z,99.90
2023-03-22T11:24:22.706Z,99.90
2023-03-22T11:27:04.418Z,99.90
2023-03-22T11:29:40.645Z,99.90
2023-03-22T11:32:28.338Z,99.90
2023-03-22T11:35:03.111Z,99.90
2023-03-22T11:37:31.090Z,99.90
2023-03-22T11:40:03.145Z,99.90
2023-03-22T11:42:31.075Z,99.90
2023-03-22T11:44:58.868Z,99.90
2023-03-22T11:47:27.604Z,99.90
2023-03-22T11:49:58.195Z,99.90
2023-03-22T11:52:28.014Z,99.90
2023-03-22T11:54:57.066Z,99.90
2023-03-22T11:57:27.165Z,99.90
2023-03-22T11:59:57.975Z,99.90
2023-03-22T12:02:42.067Z,99.90
2023-03-22T12:05:15.970Z,99.90
2023-03-22T12:07:44.248Z,99.90
2023-03-22T12:10:15.555Z,99.90
2023-03-22T12:12:47.541Z,99.80
2023-03-22T12:15:23.309Z,99.90
2023-03-22T12:18:06.011Z,99.90
2023-03-22T12:20:44.389Z,99.90
2023-03-22T12:23:20.134Z,99.90
2023-03-22T12:26:00.289Z,99.90
2023-03-22T12:28:44.371Z,99.90
2023-03-22T12:31:22.358Z,99.90
2023-03-22T12:33:53.660Z,99.90
2023-03-22T12:36:35.580Z,99.90
2023-03-22T12:39:04.265Z,99.80
2023-03-22T12:41:36.876Z,99.40
2023-03-22T12:44:10.632Z,98.50
2023-03-22T12:46:59.242Z,99.10
2023-03-22T12:49:29.990Z,98.40
2023-03-22T12:52:02.390Z,99.30
2023-03-22T12:54:30.323Z,99.00
2023-03-22T12:56:58.306Z,98.50
2023-03-22T12:59:29.562Z,99.90
2023-03-22T13:02:09.283Z,99.90
2023-03-22T13:04:37.169Z,99.00
2023-03-22T13:07:31.656Z,99.80
2023-03-22T13:10:02.668Z,99.40
2023-03-22T13:12:32.919Z,98.70
2023-03-22T13:15:23.828Z,99.60
2023-03-22T13:17:57.459Z,99.90
2023-03-22T13:20:28.922Z,99.40
2023-03-22T13:23:01.004Z,99.90
2023-03-22T13:25:35.473Z,99.40
2023-03-22T13:28:05.056Z,99.90
2023-03-22T13:30:50.155Z,99.80
2023-03-22T13:33:21.231Z,99.90
2023-03-22T13:35:57.988Z,99.90
2023-03-22T13:38:30.366Z,98.20
2023-03-22T13:41:04.164Z,99.20
2023-03-22T13:43:54.990Z,98.60
2023-03-22T13:46:23.105Z,98.30
2023-03-22T13:48:53.022Z,97.70
2023-03-22T13:51:24.015Z,98.10
2023-03-22T13:54:01.599Z,98.00
2023-03-22T13:56:32.943Z,98.80
2023-03-22T13:59:01.352Z,97.50
2023-03-22T14:01:32.200Z,97.30
2023-03-22T14:04:02.298Z,97.40
2023-03-22T14:06:32.916Z,97.40
2023-03-22T14:09:10.444Z,97.70
2023-03-22T14:11:43.824Z,97.20
2023-03-22T14:14:16.156Z,98.00
2023-03-22T14:16:51.209Z,97.10
2023-03-22T14:19:24.529Z,97.30
2023-03-22T14:54:23.478Z,97.00
2023-03-22T14:56:51.619Z,96.30
2023-03-22T14:59:24.606Z,96.50
2023-03-22T15:01:57.960Z,97.30
2023-03-22T15:04:26.462Z,97.30
2023-03-22T15:06:58.769Z,97.70
2023-03-22T15:09:33.923Z,97.80
2023-03-22T15:12:06.390Z,97.30
2023-03-22T15:14:39.326Z,96.20
2023-03-22T15:17:08.765Z,95.40
2023-03-22T15:19:39.738Z,95.60
2023-03-22T15:22:17.485Z,96.10
2023-03-22T15:24:52.296Z,96.00
2023-03-22T15:27:21.813Z,96.50
2023-03-22T15:29:50.716Z,97.00
2023-03-22T15:32:21.054Z,97.70
2023-03-22T15:34:50.452Z,97.40
2023-03-22T15:37:21.282Z,97.90
2023-03-22T15:39:49.504Z,97.90
2023-03-22T15:42:24.915Z,98.90
2023-03-22T15:45:06.020Z,99.40
2023-03-22T15:47:47.837Z,99.60
2023-03-22T15:50:18.497Z,99.90
2023-03-22T15:52:54.234Z,99.90
2023-03-22T15:55:28.084Z,99.70
2023-03-22T15:58:09.633Z,99.90
2023-03-22T16:00:40.977Z,99.90
2023-03-22T16:03:10.671Z,99.90
2023-03-22T16:05:46.410Z,99.90
2023-03-22T16:08:17.869Z,99.90
2023-03-22T16:10:50.281Z,99.90
2023-03-22T16:13:22.269Z,99.90
2023-03-22T16:15:50.648Z,99.90
2023-03-22T16:18:25.059Z,99.90
2023-03-22T16:20:54.681Z,99.90
2023-03-22T16:23:23.576Z,99.90
2023-03-22T16:25:51.901Z,99.90
2023-03-22T16:28:19.972Z,99.90
2023-03-22T16:30:48.627Z,99.90
2023-03-22T16:33:18.325Z,99.90
2023-03-22T16:35:47.150Z,99.90
2023-03-22T16:38:15.737Z,99.90
2023-03-22T16:40:53.680Z,99.90
2023-03-22T16:43:21.849Z,99.90
2023-03-22T16:45:50.349Z,99.90
2023-03-22T16:48:19.564Z,99.90
2023-03-22T16:50:49.633Z,99.90
2023-03-22T16:53:19.032Z,99.90
2023-03-22T16:55:51.349Z,99.90
2023-03-22T16:58:23.539Z,99.90
2023-03-22T17:00:54.285Z,99.90
2023-03-22T17:03:26.254Z,99.90
2023-03-22T17:05:54.375Z,99.90
2023-03-22T17:08:27.275Z,99.90
2023-03-22T17:10:55.336Z,99.90
2023-03-22T17:13:23.338Z,99.90
2023-03-22T17:15:51.724Z,99.90
2023-03-22T17:18:19.780Z,99.90
2023-03-22T17:20:48.625Z,99.90
2023-03-22T17:23:16.990Z,99.90
2023-03-22T17:25:48.783Z,99.90
2023-03-22T17:28:16.959Z,99.90
2023-03-22T17:30:45.036Z,99.90
2023-03-22T17:33:14.812Z,99.90
2023-03-22T17:35:43.736Z,99.90
2023-03-22T17:38:15.004Z,99.90
2023-03-22T17:43:16.797Z,99.90
2023-03-22T17:48:19.560Z,99.90
2023-03-22T17:50:55.366Z,99.90
2023-03-22T17:54:09.472Z,99.90
2023-03-22T17:58:42.769Z,99.90
2023-03-22T18:01:14.855Z,99.90
2023-03-22T18:03:43.087Z,99.90
2023-03-22T18:06:11.157Z,99.90
2023-03-22T18:08:39.174Z,99.90
2023-03-22T18:11:07.356Z,99.90
2023-03-22T18:13:36.615Z,99.90
2023-03-22T18:16:09.883Z,99.90
2023-03-22T18:18:38.243Z,99.90
2023-03-22T18:21:10.414Z,99.90
2023-03-22T18:23:38.506Z,99.90
2023-03-22T18:26:16.747Z,99.90
2023-03-22T18:28:53.635Z,99.90
2023-03-22T18:31:22.155Z,99.90
2023-03-22T18:33:50.963Z,99.90
2023-03-22T18:36:18.991Z,99.90
2023-03-22T18:39:30.858Z,99.90
2023-03-22T18:41:45.814Z,99.90
2023-03-22T18:44:18.876Z,99.90
2023-03-22T18:46:47.076Z,99.90
2023-03-22T18:49:15.353Z,99.90
2023-03-22T18:52:19.087Z,99.90
2023-03-22T18:54:32.852Z,99.90
2023-03-22T18:57:01.674Z,99.90
2023-03-22T18:59:32.200Z,99.90
2023-03-22T19:02:09.912Z,99.90
2023-03-22T19:04:45.309Z,99.90
2023-03-22T19:07:20.243Z,99.90
2023-03-22T19:09:59.602Z,99.90
2023-03-22T19:12:28.659Z,99.90
2023-03-22T19:15:28.140Z,99.90
2023-03-22T19:17:45.013Z,99.90
2023-03-22T19:20:13.258Z,99.90
2023-03-22T19:22:41.692Z,99.90
2023-03-22T19:25:10.038Z,99.90
2023-03-22T19:27:38.455Z,99.90
2023-03-22T19:30:07.177Z,99.90
2023-03-22T19:32:36.047Z,99.90
2023-03-22T19:35:04.234Z,99.90
2023-03-22T19:37:32.239Z,99.90
2023-03-22T19:42:49.740Z,99.90
2023-03-22T19:45:18.047Z,99.90
2023-03-22T19:47:58.215Z,99.90
2023-03-22T19:50:32.008Z,99.90
2023-03-22T19:53:14.394Z,99.90
2023-03-22T19:55:48.341Z,99.90
2023-03-22T19:58:16.385Z,99.90
2023-03-22T20:00:45.793Z,99.90
2023-03-22T20:03:14.373Z,99.90
2023-03-22T20:05:49.478Z,99.90
2023-03-22T20:08:18.771Z,99.90
2023-03-22T20:10:49.902Z,99.90
2023-03-22T20:13:19.858Z,99.90
2023-03-22T20:15:47.920Z,99.90
2023-03-22T20:18:16.154Z,99.90
2023-03-22T20:20:50.201Z,99.90
2023-03-22T20:23:18.278Z,99.90
2023-03-22T20:25:57.455Z,99.90
2023-03-22T20:28:25.884Z,99.90
2023-03-22T20:30:53.939Z,99.90
2023-03-22T20:33:22.225Z,99.90
2023-03-22T20:35:50.437Z,99.90
2023-03-22T20:38:18.716Z,99.90
2023-03-22T20:40:47.481Z,99.90
2023-03-22T20:43:15.537Z,99.90
2023-03-22T20:45:43.639Z,99.90
2023-03-22T20:48:11.795Z,99.90
2023-03-22T20:50:39.973Z,99.90
2023-03-22T20:53:08.075Z,99.90
2023-03-22T20:55:36.188Z,99.90
2023-03-22T20:58:04.844Z,99.90
2023-03-22T21:00:33.627Z,99.90
2023-03-22T21:03:01.719Z,99.90
2023-03-22T21:05:29.732Z,99.90
2023-03-22T21:07:58.225Z,99.90
2023-03-22T21:10:26.274Z,99.90
2023-03-22T21:12:54.268Z,99.90
2023-03-22T21:15:22.632Z,99.90
2023-03-22T21:17:50.691Z,99.90
2023-03-22T21:20:27.127Z,99.90
2023-03-22T21:23:00.584Z,99.90
2023-03-22T21:25:28.661Z,99.90
2023-03-22T21:28:03.651Z,99.90
2023-03-22T21:30:35.343Z,99.90
2023-03-22T21:33:03.524Z,99.90
2023-03-22T21:35:31.629Z,99.90
2023-03-22T21:37:59.810Z,99.90
2023-03-22T21:40:27.963Z,99.90
2023-03-22T21:42:59.623Z,99.90
2023-03-22T21:45:35.711Z,99.90
2023-03-22T21:48:04.091Z,99.90
2023-03-22T21:50:32.208Z,99.90
2023-03-22T21:53:00.397Z,99.90
2023-03-22T21:55:33.602Z,99.90
2023-03-22T21:58:01.842Z,99.90
2023-03-22T22:00:30.921Z,99.90
2023-03-22T22:03:02.049Z,99.90
2023-03-22T22:05:30.213Z,99.90
2023-03-22T22:07:58.292Z,99.90
2023-03-22T22:10:26.790Z,99.90
2023-03-22T22:12:56.634Z,99.90
2023-03-22T22:15:25.379Z,99.90
2023-03-22T22:17:54.146Z,99.90
2023-03-22T22:20:23.943Z,99.90
2023-03-22T22:22:52.121Z,99.90
2023-03-22T22:25:21.026Z,99.90
2023-03-22T22:27:49.563Z,99.90
2023-03-22T22:30:18.541Z,99.90
2023-03-22T22:32:50.768Z,99.90
2023-03-22T22:35:18.813Z,99.90
2023-03-22T22:37:48.089Z,99.90
2023-03-22T22:40:19.256Z,99.90
2023-03-22T22:42:47.342Z,99.90
2023-03-22T22:45:15.369Z,99.90
2023-03-22T22:47:43.518Z,99.90
2023-03-22T22:50:11.815Z,99.90
2023-03-22T22:52:40.638Z,99.90
2023-03-22T22:55:10.159Z,99.90
2023-03-22T22:57:38.897Z,99.90
2023-03-22T23:00:11.164Z,99.90
2023-03-22T23:02:39.460Z,99.90
2023-03-22T23:05:08.021Z,99.90
2023-03-22T23:07:36.127Z,99.90
2023-03-22T23:10:05.136Z,99.90
2023-03-22T23:12:33.364Z,99.90
2023-03-22T23:15:01.445Z,99.90
2023-03-22T23:17:31.358Z,99.90
2023-03-22T23:20:03.327Z,99.90
2023-03-22T23:22:31.737Z,99.90
2023-03-22T23:25:01.576Z,99.90
2023-03-22T23:27:33.700Z,99.90
2023-03-22T23:30:02.315Z,99.90
2023-03-22T23:32:30.574Z,99.90
2023-03-22T23:34:59.137Z,99.90
2023-03-22T23:37:28.512Z,99.90
2023-03-22T23:39:56.940Z,99.90
2023-03-22T23:42:24.966Z,99.90
2023-03-22T23:44:56.586Z,99.90
2023-03-22T23:47:24.630Z,99.90
2023-03-22T23:49:52.643Z,99.90
2023-03-22T23:52:20.747Z,99.90
2023-03-22T23:54:48.774Z,99.90
2023-03-22T23:57:23.510Z,99.90
2023-03-22T23:59:56.296Z,99.90
